sensor_id;sensor_type;location;lat;lon;timestamp;temperature;humidity
24260;DHT22;12384;48.112;18.418;2024-02-04T00:01:26;8.20;74.30
24260;DHT22;12384;48.112;18.418;2024-02-04T00:03:55;8.20;74.50
24260;DHT22;12384;48.112;18.418;2024-02-04T00:06:24;8.20;74.60
24260;DHT22;12384;48.112;18.418;2024-02-04T00:08:53;8.20;74.70
24260;DHT22;12384;48.112;18.418;2024-02-04T00:11:23;8.20;74.70
24260;DHT22;12384;48.112;18.418;2024-02-04T00:13:51;8.20;74.60
24260;DHT22;12384;48.112;18.418;2024-02-04T00:16:20;8.20;74.60
24260;DHT22;12384;48.112;18.418;2024-02-04T00:18:48;8.20;74.70
24260;DHT22;12384;48.112;18.418;2024-02-04T00:21:17;8.20;74.60
24260;DHT22;12384;48.112;18.418;2024-02-04T00:23:45;8.20;74.70
24260;DHT22;12384;48.112;18.418;2024-02-04T00:26:14;8.20;74.70
24260;DHT22;12384;48.112;18.418;2024-02-04T00:28:43;8.20;74.80
24260;DHT22;12384;48.112;18.418;2024-02-04T00:31:11;8.20;75.00
24260;DHT22;12384;48.112;18.418;2024-02-04T00:33:40;8.10;75.00
24260;DHT22;12384;48.112;18.418;2024-02-04T00:36:09;8.10;75.20
24260;DHT22;12384;48.112;18.418;2024-02-04T00:38:37;8.10;75.30
24260;DHT22;12384;48.112;18.418;2024-02-04T00:41:06;8.10;75.40
24260;DHT22;12384;48.112;18.418;2024-02-04T00:43:35;8.10;75.30
24260;DHT22;12384;48.112;18.418;2024-02-04T00:46:05;8.10;75.20
24260;DHT22;12384;48.112;18.418;2024-02-04T00:48:35;8.00;75.00
24260;DHT22;12384;48.112;18.418;2024-02-04T00:51:04;8.00;75.00
24260;DHT22;12384;48.112;18.418;2024-02-04T00:53:33;8.00;75.00
24260;DHT22;12384;48.112;18.418;2024-02-04T00:56:03;7.90;75.10
24260;DHT22;12384;48.112;18.418;2024-02-04T00:58:31;7.90;75.40
24260;DHT22;12384;48.112;18.418;2024-02-04T01:01:00;7.90;75.70
24260;DHT22;12384;48.112;18.418;2024-02-04T01:03:30;7.90;76.00
24260;DHT22;12384;48.112;18.418;2024-02-04T01:05:59;8.00;76.20
24260;DHT22;12384;48.112;18.418;2024-02-04T01:08:28;8.00;76.50
24260;DHT22;12384;48.112;18.418;2024-02-04T01:10:57;8.00;76.80
24260;DHT22;12384;48.112;18.418;2024-02-04T01:13:25;8.00;76.90
24260;DHT22;12384;48.112;18.418;2024-02-04T01:15:54;8.00;77.00
24260;DHT22;12384;48.112;18.418;2024-02-04T01:18:22;8.00;77.20
24260;DHT22;12384;48.112;18.418;2024-02-04T01:20:52;8.00;77.30
24260;DHT22;12384;48.112;18.418;2024-02-04T01:23:20;8.00;77.10
24260;DHT22;12384;48.112;18.418;2024-02-04T01:25:49;8.00;77.00
24260;DHT22;12384;48.112;18.418;2024-02-04T01:28:17;8.00;77.00
24260;DHT22;12384;48.112;18.418;2024-02-04T01:30:47;8.00;77.00
24260;DHT22;12384;48.112;18.418;2024-02-04T01:33:15;7.90;76.90
24260;DHT22;12384;48.112;18.418;2024-02-04T01:35:44;7.90;77.70
24260;DHT22;12384;48.112;18.418;2024-02-04T01:38:14;7.90;77.10
24260;DHT22;12384;48.112;18.418;2024-02-04T01:40:42;7.80;77.30
24260;DHT22;12384;48.112;18.418;2024-02-04T01:43:13;7.80;77.50
24260;DHT22;12384;48.112;18.418;2024-02-04T01:45:42;7.80;77.70
24260;DHT22;12384;48.112;18.418;2024-02-04T01:48:11;7.80;77.90
24260;DHT22;12384;48.112;18.418;2024-02-04T01:50:42;7.80;78.30
24260;DHT22;12384;48.112;18.418;2024-02-04T01:53:11;7.80;78.60
24260;DHT22;12384;48.112;18.418;2024-02-04T01:55:41;7.80;78.80
24260;DHT22;12384;48.112;18.418;2024-02-04T01:58:10;7.80;79.10
24260;DHT22;12384;48.112;18.418;2024-02-04T02:00:38;7.70;79.20
24260;DHT22;12384;48.112;18.418;2024-02-04T02:07:19;7.70;79.90
24260;DHT22;12384;48.112;18.418;2024-02-04T02:09:48;7.70;80.40
24260;DHT22;12384;48.112;18.418;2024-02-04T02:12:24;7.70;80.70
24260;DHT22;12384;48.112;18.418;2024-02-04T02:14:58;7.70;80.90
24260;DHT22;12384;48.112;18.418;2024-02-04T02:17:32;7.70;80.90
24260;DHT22;12384;48.112;18.418;2024-02-04T02:20:11;7.80;81.30
24260;DHT22;12384;48.112;18.418;2024-02-04T02:22:47;7.80;81.50
24260;DHT22;12384;48.112;18.418;2024-02-04T02:25:19;7.80;81.80
24260;DHT22;12384;48.112;18.418;2024-02-04T02:27:49;7.80;82.20
24260;DHT22;12384;48.112;18.418;2024-02-04T02:30:18;7.80;82.40
24260;DHT22;12384;48.112;18.418;2024-02-04T02:32:49;7.80;82.60
24260;DHT22;12384;48.112;18.418;2024-02-04T02:35:18;7.80;82.70
24260;DHT22;12384;48.112;18.418;2024-02-04T02:37:55;7.80;82.90
24260;DHT22;12384;48.112;18.418;2024-02-04T02:40:30;7.80;83.10
24260;DHT22;12384;48.112;18.418;2024-02-04T02:43:02;7.80;83.20
24260;DHT22;12384;48.112;18.418;2024-02-04T02:45:31;7.80;83.40
24260;DHT22;12384;48.112;18.418;2024-02-04T02:48:00;7.80;83.30
24260;DHT22;12384;48.112;18.418;2024-02-04T02:50:29;7.80;83.30
24260;DHT22;12384;48.112;18.418;2024-02-04T02:52:58;7.80;83.30
24260;DHT22;12384;48.112;18.418;2024-02-04T02:55:27;7.80;83.30
24260;DHT22;12384;48.112;18.418;2024-02-04T02:57:56;7.70;83.30
24260;DHT22;12384;48.112;18.418;2024-02-04T03:00:25;7.70;83.40
24260;DHT22;12384;48.112;18.418;2024-02-04T03:02:53;7.60;83.50
24260;DHT22;12384;48.112;18.418;2024-02-04T03:05:22;7.60;83.80
24260;DHT22;12384;48.112;18.418;2024-02-04T03:07:51;7.60;84.20
24260;DHT22;12384;48.112;18.418;2024-02-04T03:10:19;7.50;84.40
24260;DHT22;12384;48.112;18.418;2024-02-04T03:12:49;7.50;84.80
24260;DHT22;12384;48.112;18.418;2024-02-04T03:15:17;7.50;85.30
24260;DHT22;12384;48.112;18.418;2024-02-04T03:17:46;7.50;85.90
24260;DHT22;12384;48.112;18.418;2024-02-04T03:20:15;7.50;86.40
24260;DHT22;12384;48.112;18.418;2024-02-04T03:22:43;7.50;87.10
24260;DHT22;12384;48.112;18.418;2024-02-04T03:25:13;7.50;87.50
24260;DHT22;12384;48.112;18.418;2024-02-04T03:27:42;7.50;88.20
24260;DHT22;12384;48.112;18.418;2024-02-04T03:30:13;7.50;88.90
24260;DHT22;12384;48.112;18.418;2024-02-04T03:32:42;7.50;89.60
24260;DHT22;12384;48.112;18.418;2024-02-04T03:35:11;7.50;90.00
24260;DHT22;12384;48.112;18.418;2024-02-04T03:37:39;7.50;90.40
24260;DHT22;12384;48.112;18.418;2024-02-04T03:40:08;7.50;90.70
24260;DHT22;12384;48.112;18.418;2024-02-04T03:42:37;7.50;91.00
24260;DHT22;12384;48.112;18.418;2024-02-04T03:45:08;7.60;91.10
24260;DHT22;12384;48.112;18.418;2024-02-04T03:47:38;7.60;91.10
24260;DHT22;12384;48.112;18.418;2024-02-04T03:50:07;7.50;91.10
24260;DHT22;12384;48.112;18.418;2024-02-04T03:52:35;7.50;91.20
24260;DHT22;12384;48.112;18.418;2024-02-04T03:55:04;7.50;91.30
24260;DHT22;12384;48.112;18.418;2024-02-04T03:57:33;7.50;91.60
24260;DHT22;12384;48.112;18.418;2024-02-04T04:00:02;7.50;91.90
24260;DHT22;12384;48.112;18.418;2024-02-04T04:02:40;7.50;92.10
24260;DHT22;12384;48.112;18.418;2024-02-04T04:05:11;7.50;92.30
24260;DHT22;12384;48.112;18.418;2024-02-04T04:07:40;7.50;92.70
24260;DHT22;12384;48.112;18.418;2024-02-04T04:10:09;7.50;93.10
24260;DHT22;12384;48.112;18.418;2024-02-04T04:12:38;7.50;93.50
24260;DHT22;12384;48.112;18.418;2024-02-04T04:15:07;7.50;93.80
24260;DHT22;12384;48.112;18.418;2024-02-04T04:17:35;7.60;94.20
24260;DHT22;12384;48.112;18.418;2024-02-04T04:20:07;7.60;94.50
24260;DHT22;12384;48.112;18.418;2024-02-04T04:22:38;7.60;94.70
24260;DHT22;12384;48.112;18.418;2024-02-04T04:25:08;7.60;94.70
24260;DHT22;12384;48.112;18.418;2024-02-04T04:27:37;7.70;94.70
24260;DHT22;12384;48.112;18.418;2024-02-04T04:30:06;7.70;94.70
24260;DHT22;12384;48.112;18.418;2024-02-04T04:32:36;7.70;94.70
24260;DHT22;12384;48.112;18.418;2024-02-04T04:35:06;7.70;94.70
24260;DHT22;12384;48.112;18.418;2024-02-04T04:37:34;7.70;94.80
24260;DHT22;12384;48.112;18.418;2024-02-04T04:40:03;7.70;94.90
24260;DHT22;12384;48.112;18.418;2024-02-04T04:42:33;7.70;95.00
24260;DHT22;12384;48.112;18.418;2024-02-04T04:45:01;7.70;95.10
24260;DHT22;12384;48.112;18.418;2024-02-04T04:47:30;7.70;95.20
24260;DHT22;12384;48.112;18.418;2024-02-04T04:49:58;7.70;95.10
24260;DHT22;12384;48.112;18.418;2024-02-04T04:52:28;7.70;94.90
24260;DHT22;12384;48.112;18.418;2024-02-04T04:54:56;7.70;94.90
24260;DHT22;12384;48.112;18.418;2024-02-04T04:57:25;7.70;94.90
24260;DHT22;12384;48.112;18.418;2024-02-04T04:59:53;7.70;94.90
24260;DHT22;12384;48.112;18.418;2024-02-04T05:02:22;7.70;95.00
24260;DHT22;12384;48.112;18.418;2024-02-04T05:04:50;7.60;94.90
24260;DHT22;12384;48.112;18.418;2024-02-04T05:07:19;7.60;94.90
24260;DHT22;12384;48.112;18.418;2024-02-04T05:09:50;7.60;94.80
24260;DHT22;12384;48.112;18.418;2024-02-04T05:12:18;7.60;94.80
24260;DHT22;12384;48.112;18.418;2024-02-04T05:14:47;7.60;94.70
24260;DHT22;12384;48.112;18.418;2024-02-04T05:17:15;7.50;94.60
24260;DHT22;12384;48.112;18.418;2024-02-04T05:19:44;7.50;94.60
24260;DHT22;12384;48.112;18.418;2024-02-04T05:22:12;7.50;94.80
24260;DHT22;12384;48.112;18.418;2024-02-04T05:24:41;7.50;94.90
24260;DHT22;12384;48.112;18.418;2024-02-04T05:27:11;7.50;95.10
24260;DHT22;12384;48.112;18.418;2024-02-04T05:29:39;7.40;95.30
24260;DHT22;12384;48.112;18.418;2024-02-04T05:32:08;7.40;95.50
24260;DHT22;12384;48.112;18.418;2024-02-04T05:34:37;7.40;95.60
24260;DHT22;12384;48.112;18.418;2024-02-04T05:37:06;7.40;95.70
24260;DHT22;12384;48.112;18.418;2024-02-04T05:39:34;7.30;95.70
24260;DHT22;12384;48.112;18.418;2024-02-04T05:42:03;7.30;95.90
24260;DHT22;12384;48.112;18.418;2024-02-04T05:44:33;7.30;96.20
24260;DHT22;12384;48.112;18.418;2024-02-04T05:47:01;7.30;96.40
24260;DHT22;12384;48.112;18.418;2024-02-04T05:49:30;7.30;96.60
24260;DHT22;12384;48.112;18.418;2024-02-04T05:51:59;7.30;96.80
24260;DHT22;12384;48.112;18.418;2024-02-04T05:54:27;7.30;96.90
24260;DHT22;12384;48.112;18.418;2024-02-04T05:56:55;7.30;97.10
24260;DHT22;12384;48.112;18.418;2024-02-04T05:59:24;7.20;97.20
24260;DHT22;12384;48.112;18.418;2024-02-04T06:01:54;7.20;97.40
24260;DHT22;12384;48.112;18.418;2024-02-04T06:04:22;7.20;97.50
24260;DHT22;12384;48.112;18.418;2024-02-04T06:06:51;7.20;97.60
24260;DHT22;12384;48.112;18.418;2024-02-04T06:09:19;7.10;97.70
24260;DHT22;12384;48.112;18.418;2024-02-04T06:11:48;7.10;97.90
24260;DHT22;12384;48.112;18.418;2024-02-04T06:14:16;7.10;98.20
24260;DHT22;12384;48.112;18.418;2024-02-04T06:16:45;7.10;98.50
24260;DHT22;12384;48.112;18.418;2024-02-04T06:19:14;7.10;98.90
24260;DHT22;12384;48.112;18.418;2024-02-04T06:21:43;7.10;99.20
24260;DHT22;12384;48.112;18.418;2024-02-04T06:24:11;7.10;99.70
24260;DHT22;12384;48.112;18.418;2024-02-04T06:26:40;7.10;99.90
24260;DHT22;12384;48.112;18.418;2024-02-04T06:29:10;7.10;99.90
24260;DHT22;12384;48.112;18.418;2024-02-04T06:31:38;7.10;99.90
24260;DHT22;12384;48.112;18.418;2024-02-04T06:34:06;7.10;99.90
24260;DHT22;12384;48.112;18.418;2024-02-04T06:36:36;7.10;99.90
24260;DHT22;12384;48.112;18.418;2024-02-04T06:39:05;7.10;99.90
24260;DHT22;12384;48.112;18.418;2024-02-04T06:41:35;7.20;99.90
24260;DHT22;12384;48.112;18.418;2024-02-04T06:44:04;7.20;99.90
24260;DHT22;12384;48.112;18.418;2024-02-04T06:46:32;7.30;99.90
24260;DHT22;12384;48.112;18.418;2024-02-04T06:49:01;7.40;99.90
24260;DHT22;12384;48.112;18.418;2024-02-04T06:51:30;7.40;99.90
24260;DHT22;12384;48.112;18.418;2024-02-04T06:54:00;7.50;99.90
24260;DHT22;12384;48.112;18.418;2024-02-04T06:56:29;7.50;99.90
24260;DHT22;12384;48.112;18.418;2024-02-04T06:58:57;7.60;99.90
24260;DHT22;12384;48.112;18.418;2024-02-04T07:01:25;7.70;99.90
24260;DHT22;12384;48.112;18.418;2024-02-04T07:03:54;7.70;99.90
24260;DHT22;12384;48.112;18.418;2024-02-04T07:06:23;7.80;99.90
24260;DHT22;12384;48.112;18.418;2024-02-04T07:08:51;7.80;99.90
24260;DHT22;12384;48.112;18.418;2024-02-04T07:11:21;7.90;99.90
24260;DHT22;12384;48.112;18.418;2024-02-04T07:13:49;7.90;99.90
24260;DHT22;12384;48.112;18.418;2024-02-04T07:16:21;8.00;99.90
24260;DHT22;12384;48.112;18.418;2024-02-04T07:18:49;8.00;99.90
24260;DHT22;12384;48.112;18.418;2024-02-04T07:21:18;8.10;99.90
24260;DHT22;12384;48.112;18.418;2024-02-04T07:23:46;8.10;99.90
24260;DHT22;12384;48.112;18.418;2024-02-04T07:26:14;8.20;99.90
24260;DHT22;12384;48.112;18.418;2024-02-04T07:28:44;8.30;99.90
24260;DHT22;12384;48.112;18.418;2024-02-04T07:31:13;8.70;99.90
24260;DHT22;12384;48.112;18.418;2024-02-04T07:33:41;9.20;99.90
24260;DHT22;12384;48.112;18.418;2024-02-04T07:36:10;9.90;99.90
24260;DHT22;12384;48.112;18.418;2024-02-04T07:38:39;10.50;99.90
24260;DHT22;12384;48.112;18.418;2024-02-04T07:41:08;11.00;99.90
24260;DHT22;12384;48.112;18.418;2024-02-04T07:43:36;11.30;99.90
24260;DHT22;12384;48.112;18.418;2024-02-04T07:46:07;11.40;99.90
24260;DHT22;12384;48.112;18.418;2024-02-04T07:48:36;11.40;99.90
24260;DHT22;12384;48.112;18.418;2024-02-04T07:51:06;11.30;98.20
24260;DHT22;12384;48.112;18.418;2024-02-04T07:53:35;11.10;95.60
24260;DHT22;12384;48.112;18.418;2024-02-04T07:56:04;11.00;93.50
24260;DHT22;12384;48.112;18.418;2024-02-04T07:58:34;10.80;91.90
24260;DHT22;12384;48.112;18.418;2024-02-04T08:01:02;10.60;90.90
24260;DHT22;12384;48.112;18.418;2024-02-04T08:03:32;10.50;90.30
24260;DHT22;12384;48.112;18.418;2024-02-04T08:06:01;10.30;89.50
24260;DHT22;12384;48.112;18.418;2024-02-04T08:08:30;10.20;89.30
24260;DHT22;12384;48.112;18.418;2024-02-04T08:10:59;10.20;89.30
24260;DHT22;12384;48.112;18.418;2024-02-04T08:13:28;10.10;88.40
24260;DHT22;12384;48.112;18.418;2024-02-04T08:15:56;10.00;88.80
24260;DHT22;12384;48.112;18.418;2024-02-04T08:18:25;10.00;89.60
24260;DHT22;12384;48.112;18.418;2024-02-04T08:20:55;10.00;90.10
24260;DHT22;12384;48.112;18.418;2024-02-04T08:23:23;10.00;90.20
24260;DHT22;12384;48.112;18.418;2024-02-04T08:25:52;10.00;90.20
24260;DHT22;12384;48.112;18.418;2024-02-04T08:28:20;10.00;90.70
24260;DHT22;12384;48.112;18.418;2024-02-04T08:30:51;10.30;93.70
24260;DHT22;12384;48.112;18.418;2024-02-04T08:33:19;10.60;96.40
24260;DHT22;12384;48.112;18.418;2024-02-04T08:35:48;11.10;99.90
24260;DHT22;12384;48.112;18.418;2024-02-04T08:38:18;11.80;99.90
24260;DHT22;12384;48.112;18.418;2024-02-04T08:40:47;12.60;99.90
24260;DHT22;12384;48.112;18.418;2024-02-04T08:43:15;13.10;99.90
24260;DHT22;12384;48.112;18.418;2024-02-04T08:45:44;13.40;98.20
24260;DHT22;12384;48.112;18.418;2024-02-04T08:48:12;13.50;94.10
24260;DHT22;12384;48.112;18.418;2024-02-04T08:50:41;13.60;91.40
24260;DHT22;12384;48.112;18.418;2024-02-04T08:53:09;13.70;89.90
24260;DHT22;12384;48.112;18.418;2024-02-04T08:55:39;13.70;87.30
24260;DHT22;12384;48.112;18.418;2024-02-04T08:58:07;13.90;85.00
24260;DHT22;12384;48.112;18.418;2024-02-04T09:00:36;14.10;85.50
24260;DHT22;12384;48.112;18.418;2024-02-04T09:03:04;14.40;83.70
24260;DHT22;12384;48.112;18.418;2024-02-04T09:05:33;14.70;82.10
24260;DHT22;12384;48.112;18.418;2024-02-04T09:08:01;14.80;78.70
24260;DHT22;12384;48.112;18.418;2024-02-04T09:10:30;14.90;76.20
24260;DHT22;12384;48.112;18.418;2024-02-04T09:13:00;15.10;76.50
24260;DHT22;12384;48.112;18.418;2024-02-04T09:15:28;15.40;77.10
24260;DHT22;12384;48.112;18.418;2024-02-04T09:17:57;15.90;76.90
24260;DHT22;12384;48.112;18.418;2024-02-04T09:20:26;16.50;78.70
24260;DHT22;12384;48.112;18.418;2024-02-04T09:22:54;17.10;74.70
24260;DHT22;12384;48.112;18.418;2024-02-04T09:25:24;17.70;71.20
24260;DHT22;12384;48.112;18.418;2024-02-04T09:27:53;18.20;66.70
24260;DHT22;12384;48.112;18.418;2024-02-04T09:30:23;18.60;62.90
24260;DHT22;12384;48.112;18.418;2024-02-04T09:32:52;18.90;60.60
24260;DHT22;12384;48.112;18.418;2024-02-04T09:35:20;19.10;58.20
24260;DHT22;12384;48.112;18.418;2024-02-04T09:37:49;19.40;56.10
24260;DHT22;12384;48.112;18.418;2024-02-04T09:40:18;19.50;54.60
24260;DHT22;12384;48.112;18.418;2024-02-04T09:42:47;19.60;53.40
24260;DHT22;12384;48.112;18.418;2024-02-04T09:45:16;19.70;52.60
24260;DHT22;12384;48.112;18.418;2024-02-04T09:47:46;19.60;51.70
24260;DHT22;12384;48.112;18.418;2024-02-04T09:50:15;19.50;51.50
24260;DHT22;12384;48.112;18.418;2024-02-04T09:52:50;19.50;51.00
24260;DHT22;12384;48.112;18.418;2024-02-04T09:55:20;19.40;50.90
24260;DHT22;12384;48.112;18.418;2024-02-04T09:57:49;19.30;50.00
24260;DHT22;12384;48.112;18.418;2024-02-04T10:00:19;19.30;50.20
24260;DHT22;12384;48.112;18.418;2024-02-04T10:02:49;19.20;50.00
24260;DHT22;12384;48.112;18.418;2024-02-04T10:05:18;19.20;49.30
24260;DHT22;12384;48.112;18.418;2024-02-04T10:07:47;19.20;48.70
24260;DHT22;12384;48.112;18.418;2024-02-04T10:10:15;19.10;48.40
24260;DHT22;12384;48.112;18.418;2024-02-04T10:12:44;19.10;48.20
24260;DHT22;12384;48.112;18.418;2024-02-04T10:15:12;18.80;47.80
24260;DHT22;12384;48.112;18.418;2024-02-04T10:17:43;18.60;47.80
24260;DHT22;12384;48.112;18.418;2024-02-04T10:20:14;18.40;47.30
24260;DHT22;12384;48.112;18.418;2024-02-04T10:22:47;18.20;46.80
24260;DHT22;12384;48.112;18.418;2024-02-04T10:25:20;17.80;47.20
24260;DHT22;12384;48.112;18.418;2024-02-04T10:27:49;17.50;46.70
24260;DHT22;12384;48.112;18.418;2024-02-04T10:30:19;17.00;46.80
24260;DHT22;12384;48.112;18.418;2024-02-04T10:32:50;16.60;47.20
24260;DHT22;12384;48.112;18.418;2024-02-04T10:35:21;16.30;47.60
24260;DHT22;12384;48.112;18.418;2024-02-04T10:37:51;16.00;47.80
24260;DHT22;12384;48.112;18.418;2024-02-04T10:40:20;15.70;48.10
24260;DHT22;12384;48.112;18.418;2024-02-04T10:42:49;15.40;48.30
24260;DHT22;12384;48.112;18.418;2024-02-04T10:45:20;15.20;49.20
24260;DHT22;12384;48.112;18.418;2024-02-04T10:47:56;15.20;50.70
24260;DHT22;12384;48.112;18.418;2024-02-04T10:50:27;15.50;51.60
24260;DHT22;12384;48.112;18.418;2024-02-04T10:52:58;15.90;51.40
24260;DHT22;12384;48.112;18.418;2024-02-04T10:55:31;16.30;51.00
24260;DHT22;12384;48.112;18.418;2024-02-04T10:58:01;16.70;50.90
24260;DHT22;12384;48.112;18.418;2024-02-04T11:00:30;17.00;50.50
24260;DHT22;12384;48.112;18.418;2024-02-04T11:02:59;17.30;49.70
24260;DHT22;12384;48.112;18.418;2024-02-04T11:05:30;17.50;49.40
24260;DHT22;12384;48.112;18.418;2024-02-04T11:08:03;17.80;48.10
24260;DHT22;12384;48.112;18.418;2024-02-04T11:10:32;18.10;47.70
24260;DHT22;12384;48.112;18.418;2024-02-04T11:13:03;18.40;47.50
24260;DHT22;12384;48.112;18.418;2024-02-04T11:15:36;18.70;46.70
24260;DHT22;12384;48.112;18.418;2024-02-04T11:18:40;19.00;46.30
24260;DHT22;12384;48.112;18.418;2024-02-04T11:21:24;19.30;46.10
24260;DHT22;12384;48.112;18.418;2024-02-04T11:24:07;19.50;44.60
24260;DHT22;12384;48.112;18.418;2024-02-04T11:26:38;19.60;43.60
24260;DHT22;12384;48.112;18.418;2024-02-04T11:29:09;19.60;43.50
24260;DHT22;12384;48.112;18.418;2024-02-04T11:31:39;19.60;43.40
24260;DHT22;12384;48.112;18.418;2024-02-04T11:34:08;19.60;43.00
24260;DHT22;12384;48.112;18.418;2024-02-04T11:36:39;19.50;42.50
24260;DHT22;12384;48.112;18.418;2024-02-04T11:39:12;19.20;42.10
24260;DHT22;12384;48.112;18.418;2024-02-04T11:41:46;19.00;42.30
24260;DHT22;12384;48.112;18.418;2024-02-04T11:44:20;18.70;41.80
24260;DHT22;12384;48.112;18.418;2024-02-04T11:46:50;18.40;42.50
24260;DHT22;12384;48.112;18.418;2024-02-04T11:49:20;18.10;43.10
24260;DHT22;12384;48.112;18.418;2024-02-04T11:51:54;17.90;43.80
24260;DHT22;12384;48.112;18.418;2024-02-04T11:54:23;17.70;43.80
24260;DHT22;12384;48.112;18.418;2024-02-04T11:56:52;17.60;43.80
24260;DHT22;12384;48.112;18.418;2024-02-04T11:59:23;17.40;44.00
24260;DHT22;12384;48.112;18.418;2024-02-04T12:01:54;17.30;44.20
24260;DHT22;12384;48.112;18.418;2024-02-04T12:04:23;17.10;44.70
24260;DHT22;12384;48.112;18.418;2024-02-04T12:06:54;17.00;44.60
24260;DHT22;12384;48.112;18.418;2024-02-04T12:09:23;16.90;45.00
24260;DHT22;12384;48.112;18.418;2024-02-04T12:11:53;16.90;45.30
24260;DHT22;12384;48.112;18.418;2024-02-04T12:14:22;16.80;45.50
24260;DHT22;12384;48.112;18.418;2024-02-04T12:16:51;16.80;45.80
24260;DHT22;12384;48.112;18.418;2024-02-04T12:19:19;16.80;45.90
24260;DHT22;12384;48.112;18.418;2024-02-04T12:21:48;16.70;46.00
24260;DHT22;12384;48.112;18.418;2024-02-04T12:24:18;16.60;45.60
24260;DHT22;12384;48.112;18.418;2024-02-04T12:26:47;16.40;45.50
24260;DHT22;12384;48.112;18.418;2024-02-04T12:29:15;16.20;45.70
24260;DHT22;12384;48.112;18.418;2024-02-04T12:31:44;16.00;45.90
24260;DHT22;12384;48.112;18.418;2024-02-04T12:34:13;15.80;46.00
24260;DHT22;12384;48.112;18.418;2024-02-04T12:36:42;15.50;46.30
24260;DHT22;12384;48.112;18.418;2024-02-04T12:39:15;15.30;46.70
24260;DHT22;12384;48.112;18.418;2024-02-04T12:41:51;15.10;47.10
24260;DHT22;12384;48.112;18.418;2024-02-04T12:44:19;14.90;47.50
24260;DHT22;12384;48.112;18.418;2024-02-04T12:46:50;14.70;48.00
24260;DHT22;12384;48.112;18.418;2024-02-04T12:49:21;14.50;48.50
24260;DHT22;12384;48.112;18.418;2024-02-04T12:51:50;14.40;48.80
24260;DHT22;12384;48.112;18.418;2024-02-04T12:54:20;14.20;49.30
24260;DHT22;12384;48.112;18.418;2024-02-04T12:56:51;14.10;49.60
24260;DHT22;12384;48.112;18.418;2024-02-04T12:59:26;14.10;49.80
24260;DHT22;12384;48.112;18.418;2024-02-04T13:01:57;14.00;50.00
24260;DHT22;12384;48.112;18.418;2024-02-04T13:04:26;13.90;50.30
24260;DHT22;12384;48.112;18.418;2024-02-04T13:06:54;13.80;50.50
24260;DHT22;12384;48.112;18.418;2024-02-04T13:09:23;13.80;50.80
24260;DHT22;12384;48.112;18.418;2024-02-04T13:12:03;13.80;50.90
24260;DHT22;12384;48.112;18.418;2024-02-04T13:14:32;13.70;51.10
24260;DHT22;12384;48.112;18.418;2024-02-04T13:17:00;13.70;51.30
24260;DHT22;12384;48.112;18.418;2024-02-04T13:19:32;13.70;51.40
24260;DHT22;12384;48.112;18.418;2024-02-04T13:22:02;13.70;51.60
24260;DHT22;12384;48.112;18.418;2024-02-04T13:24:31;13.70;51.70
24260;DHT22;12384;48.112;18.418;2024-02-04T13:27:02;13.60;51.90
24260;DHT22;12384;48.112;18.418;2024-02-04T13:29:32;13.60;52.00
24260;DHT22;12384;48.112;18.418;2024-02-04T13:32:01;13.60;52.10
24260;DHT22;12384;48.112;18.418;2024-02-04T13:34:30;13.50;52.00
24260;DHT22;12384;48.112;18.418;2024-02-04T13:36:58;13.50;52.10
24260;DHT22;12384;48.112;18.418;2024-02-04T13:39:27;13.50;52.20
24260;DHT22;12384;48.112;18.418;2024-02-04T13:41:55;13.40;52.30
24260;DHT22;12384;48.112;18.418;2024-02-04T13:44:25;13.40;52.40
24260;DHT22;12384;48.112;18.418;2024-02-04T13:46:54;13.30;52.50
24260;DHT22;12384;48.112;18.418;2024-02-04T13:49:22;13.30;52.60
24260;DHT22;12384;48.112;18.418;2024-02-04T13:51:51;13.30;52.70
24260;DHT22;12384;48.112;18.418;2024-02-04T13:54:19;13.20;52.70
24260;DHT22;12384;48.112;18.418;2024-02-04T13:56:48;13.20;52.90
24260;DHT22;12384;48.112;18.418;2024-02-04T13:59:17;13.10;52.90
24260;DHT22;12384;48.112;18.418;2024-02-04T14:01:46;13.00;52.90
24260;DHT22;12384;48.112;18.418;2024-02-04T14:04:17;12.90;53.00
24260;DHT22;12384;48.112;18.418;2024-02-04T14:06:46;12.90;53.20
24260;DHT22;12384;48.112;18.418;2024-02-04T14:09:14;12.80;53.30
24260;DHT22;12384;48.112;18.418;2024-02-04T14:11:43;12.70;53.40
24260;DHT22;12384;48.112;18.418;2024-02-04T14:14:12;12.60;53.50
24260;DHT22;12384;48.112;18.418;2024-02-04T14:16:40;12.50;53.60
24260;DHT22;12384;48.112;18.418;2024-02-04T14:19:10;12.40;54.00
24260;DHT22;12384;48.112;18.418;2024-02-04T14:21:41;12.30;53.90
24260;DHT22;12384;48.112;18.418;2024-02-04T14:24:09;12.30;54.10
24260;DHT22;12384;48.112;18.418;2024-02-04T14:26:38;12.20;54.20
24260;DHT22;12384;48.112;18.418;2024-02-04T14:29:08;12.10;54.40
24260;DHT22;12384;48.112;18.418;2024-02-04T14:31:36;12.00;54.50
24260;DHT22;12384;48.112;18.418;2024-02-04T14:34:05;11.90;54.60
24260;DHT22;12384;48.112;18.418;2024-02-04T14:36:35;11.90;54.80
24260;DHT22;12384;48.112;18.418;2024-02-04T14:39:03;11.80;55.00
24260;DHT22;12384;48.112;18.418;2024-02-04T14:41:34;11.70;55.10
24260;DHT22;12384;48.112;18.418;2024-02-04T14:44:03;11.60;55.20
24260;DHT22;12384;48.112;18.418;2024-02-04T14:46:32;11.60;55.50
24260;DHT22;12384;48.112;18.418;2024-02-04T14:49:04;11.50;56.00
24260;DHT22;12384;48.112;18.418;2024-02-04T14:51:32;11.50;55.60
24260;DHT22;12384;48.112;18.418;2024-02-04T14:54:04;11.50;55.80
24260;DHT22;12384;48.112;18.418;2024-02-04T14:56:37;11.40;55.90
24260;DHT22;12384;48.112;18.418;2024-02-04T14:59:09;11.30;56.00
24260;DHT22;12384;48.112;18.418;2024-02-04T15:01:49;11.30;56.10
24260;DHT22;12384;48.112;18.418;2024-02-04T15:04:18;11.20;56.20
24260;DHT22;12384;48.112;18.418;2024-02-04T15:06:47;11.20;56.50
24260;DHT22;12384;48.112;18.418;2024-02-04T15:09:17;11.20;56.50
24260;DHT22;12384;48.112;18.418;2024-02-04T15:11:47;11.10;56.60
24260;DHT22;12384;48.112;18.418;2024-02-04T15:14:16;11.10;56.60
24260;DHT22;12384;48.112;18.418;2024-02-04T15:16:45;11.00;56.70
24260;DHT22;12384;48.112;18.418;2024-02-04T15:19:15;11.00;56.90
24260;DHT22;12384;48.112;18.418;2024-02-04T15:21:44;11.00;57.10
24260;DHT22;12384;48.112;18.418;2024-02-04T15:24:13;10.90;57.00
24260;DHT22;12384;48.112;18.418;2024-02-04T15:26:45;10.90;57.20
24260;DHT22;12384;48.112;18.418;2024-02-04T15:29:15;10.90;57.30
24260;DHT22;12384;48.112;18.418;2024-02-04T15:31:44;10.90;57.30
24260;DHT22;12384;48.112;18.418;2024-02-04T15:34:16;10.80;57.50
24260;DHT22;12384;48.112;18.418;2024-02-04T15:36:45;10.80;57.60
24260;DHT22;12384;48.112;18.418;2024-02-04T15:39:15;10.80;57.70
24260;DHT22;12384;48.112;18.418;2024-02-04T15:41:45;10.80;57.80